Home   Weather   United Kingdom   Manchester   Past weeks
Flag for United Kingdom

Past Weather in Manchester, England, United Kingdom — November 2016

Currently: 41 °F. Quite cool. (Weather station: Manchester Airport, United Kingdom). See more current weather

November 2016 Weather in Manchester — Graph

°F

High & Low Weather Summary for November 2016

 TemperatureHumidityPressure
High57 °F (Nov 15, 5:20 am)100% (Nov 1, 12:20 am)30.57 "Hg (Nov 1, 12:20 am)
Low25 °F (Nov 26, 6:50 am)50% (Nov 28, 1:20 pm)29.06 "Hg (Nov 20, 4:50 am)
Average41 °F87%29.95 "Hg
* Reported Nov 1 12:20 am — Nov 30 11:50 pm, Manchester. Weather by CustomWeather, © 2022

Note: Actual official high and low records may vary slightly from our data, if they occured in-between our weather recording intervals... More about our weather records

Manchester Weather History for November 1, 2016

Scroll right to see more
 ConditionsComfort  
Time TempWeatherWind HumidityBarometerVisibility
12:20 am
Tue, Nov 1
46 °FFog.2 mph100%30.27 "Hg0 mi
12:50 am48 °FFog.2 mph94%30.27 "Hg0 mi
1:20 am48 °FFog.2 mph100%30.27 "Hg1 mi
1:50 am48 °FFog.3 mph100%30.27 "Hg1 mi
2:20 am48 °FFog.2 mph100%30.27 "Hg1 mi
2:50 am48 °FFog.No wind100%30.24 "Hg1 mi
3:20 am50 °FFog.No wind94%30.24 "Hg2 mi
3:50 am50 °FFog.No wind94%30.24 "Hg1 mi
4:20 am50 °FFog.No wind94%30.24 "Hg1 mi
4:50 am50 °FFog.No wind94%30.24 "Hg1 mi
5:20 am50 °FFog.3 mph100%30.24 "Hg1 mi
5:50 am50 °FFog.5 mph100%30.24 "Hg1 mi
6:20 am50 °FFog.7 mph100%30.24 "Hg1 mi
6:50 am50 °FFog.5 mph100%30.27 "Hg1 mi
7:20 am50 °FRain. Fog.8 mph100%30.27 "Hg6 mi
7:50 am50 °FRain. Fog.10 mph94%30.27 "HgN/A
8:20 am50 °FPartly sunny.12 mph88%30.30 "HgN/A
8:50 am50 °FPartly sunny.13 mph88%30.30 "HgN/A
9:20 am50 °FBroken clouds.15 mph88%30.30 "HgN/A
9:50 am50 °FPartly sunny.17 mph82%30.30 "HgN/A
10:20 am48 °FPartly sunny.12 mph82%30.33 "HgN/A
10:50 am50 °FPartly sunny.9 mph76%30.33 "HgN/A
11:20 am50 °FPartly sunny.10 mph76%30.33 "HgN/A
11:50 am50 °FScattered clouds.8 mph76%30.30 "HgN/A
12:20 pm52 °FScattered clouds.5 mph72%30.30 "HgN/A
12:50 pm52 °FScattered clouds.5 mph72%30.30 "HgN/A
1:20 pm52 °FScattered clouds.7 mph72%30.30 "HgN/A
1:50 pm52 °FScattered clouds.6 mph67%30.30 "HgN/A
2:20 pm52 °FScattered clouds.7 mph72%30.30 "HgN/A
2:50 pm50 °FPassing clouds.10 mph71%30.30 "HgN/A
3:20 pm50 °FPassing clouds.8 mph67%30.30 "HgN/A
3:50 pm50 °FPassing clouds.7 mph67%30.30 "HgN/A
4:20 pm48 °FPassing clouds.7 mph66%30.30 "HgN/A
4:50 pm46 °FPassing clouds.5 mph71%30.30 "HgN/A
5:20 pm45 °FPassing clouds.5 mph76%30.30 "HgN/A
5:50 pm43 °FPassing clouds.2 mph81%30.30 "HgN/A
6:20 pm41 °FPassing clouds.No wind93%30.30 "HgN/A
6:50 pm43 °FPassing clouds.No wind87%30.30 "HgN/A
7:20 pm41 °FPassing clouds.No wind93%30.30 "HgN/A
7:50 pm39 °FPassing clouds.3 mph93%30.30 "HgN/A
8:20 pm37 °FPassing clouds.2 mph93%30.30 "HgN/A
8:50 pm37 °FPassing clouds.No wind100%30.30 "HgN/A
9:20 pm37 °FPassing clouds.3 mph93%30.30 "HgN/A
9:50 pm37 °FPassing clouds.2 mph93%30.30 "HgN/A
10:20 pm36 °FPassing clouds.No wind93%30.30 "HgN/A
10:50 pm36 °FClear.2 mph93%30.30 "Hg10 mi
11:20 pm36 °FClear.2 mph93%30.30 "Hg4 mi
11:50 pm34 °FFog.3 mph93%30.30 "Hg3 mi
Weather by CustomWeather, © 2022

See weather overview